createdAt,value
2022-07-29T00:02:26.915Z,17.63
2022-07-29T00:05:51.870Z,17.76
2022-07-29T00:09:15.859Z,17.35
2022-07-29T00:12:40.979Z,17.18
2022-07-29T00:16:05.232Z,17.31
2022-07-29T00:19:29.865Z,17.56
2022-07-29T00:22:57.890Z,17.39
2022-07-29T00:26:22.867Z,17.99
2022-07-29T00:29:46.884Z,18.03
2022-07-29T00:33:10.900Z,17.71
2022-07-29T00:36:35.887Z,17.66
2022-07-29T00:40:00.910Z,18.19
2022-07-29T00:43:24.919Z,17.98
2022-07-29T00:46:50.930Z,18.19
2022-07-29T00:50:14.929Z,18.24
2022-07-29T00:53:39.907Z,17.82
2022-07-29T00:57:06.596Z,18.54
2022-07-29T01:00:34.944Z,18.12
2022-07-29T01:03:58.904Z,18.04
2022-07-29T01:07:24.009Z,18.35
2022-07-29T01:10:47.865Z,17.82
2022-07-29T01:14:12.062Z,17.82
2022-07-29T01:17:53.600Z,18.30
2022-07-29T01:21:35.959Z,18.04
2022-07-29T01:25:18.860Z,18.37
2022-07-29T01:29:08.432Z,18.53
2022-07-29T01:32:40.877Z,18.20
2022-07-29T01:36:04.919Z,18.56
2022-07-29T01:39:42.885Z,17.98
2022-07-29T01:43:12.943Z,17.62
2022-07-29T01:46:51.002Z,18.45
2022-07-29T01:50:15.910Z,18.05
2022-07-29T01:54:19.291Z,18.06
2022-07-29T01:57:46.876Z,18.21
2022-07-29T02:01:11.926Z,17.67
2022-07-29T02:04:30.540Z,16.94
2022-07-29T02:07:49.933Z,17.63
2022-07-29T02:11:15.940Z,17.56
2022-07-29T02:14:39.915Z,17.87
2022-07-29T02:18:12.979Z,17.75
2022-07-29T02:21:39.958Z,17.49
2022-07-29T02:25:04.965Z,17.60
2022-07-29T02:28:29.932Z,17.17
2022-07-29T02:31:56.963Z,16.88
2022-07-29T02:35:20.892Z,16.55
2022-07-29T02:39:06.935Z,16.69
2022-07-29T02:42:34.915Z,16.60
2022-07-29T02:45:58.988Z,16.88
2022-07-29T02:49:53.916Z,16.58
2022-07-29T02:53:39.930Z,16.17
2022-07-29T02:57:04.936Z,16.21
2022-07-29T03:00:28.984Z,16.33
2022-07-29T03:03:53.936Z,15.74
2022-07-29T03:07:17.943Z,15.50
2022-07-29T03:10:42.985Z,16.42
2022-07-29T03:14:07.013Z,16.04
2022-07-29T03:17:32.939Z,16.65
2022-07-29T03:20:55.957Z,16.55
2022-07-29T03:24:19.942Z,16.77
2022-07-29T03:27:44.994Z,16.71
2022-07-29T03:31:09.004Z,16.41
2022-07-29T03:34:32.952Z,16.61
2022-07-29T03:37:57.968Z,16.20
2022-07-29T03:41:25.935Z,16.33
2022-07-29T03:44:50.923Z,16.08
2022-07-29T03:48:26.998Z,16.16
2022-07-29T03:51:50.962Z,16.28
2022-07-29T03:55:15.950Z,15.89
2022-07-29T03:58:39.922Z,15.97
2022-07-29T04:02:05.023Z,15.75
2022-07-29T04:05:30.968Z,15.60
2022-07-29T04:08:54.995Z,15.44
2022-07-29T04:12:19.967Z,15.56
2022-07-29T04:15:45.113Z,15.54
2022-07-29T04:19:10.003Z,15.41
2022-07-29T04:22:34.963Z,15.42
2022-07-29T04:25:58.970Z,15.30
2022-07-29T04:29:23.998Z,15.40
2022-07-29T04:32:48.999Z,15.37
2022-07-29T04:36:28.759Z,15.24
2022-07-29T04:39:54.002Z,15.00
2022-07-29T04:43:22.687Z,15.03
2022-07-29T04:46:49.087Z,15.05
2022-07-29T04:50:13.995Z,14.87
2022-07-29T04:53:37.979Z,14.94
2022-07-29T04:57:02.032Z,14.55
2022-07-29T05:00:32.081Z,14.57
2022-07-29T05:04:00.519Z,14.52
2022-07-29T05:07:25.023Z,14.56
2022-07-29T05:10:43.625Z,14.56
2022-07-29T05:14:00.972Z,14.51
2022-07-29T05:17:26.945Z,14.37
2022-07-29T05:20:51.017Z,14.25
2022-07-29T05:24:17.404Z,14.08
2022-07-29T05:27:42.031Z,14.12
2022-07-29T05:31:06.003Z,14.04
2022-07-29T05:34:30.021Z,13.86
2022-07-29T05:37:54.033Z,13.58
2022-07-29T05:41:18.043Z,13.41
2022-07-29T05:44:43.028Z,13.35
2022-07-29T05:48:06.998Z,13.21
2022-07-29T05:51:33.019Z,13.12
2022-07-29T05:54:58.013Z,13.32
2022-07-29T05:58:22.020Z,13.39
2022-07-29T06:01:48.145Z,13.40
2022-07-29T06:05:17.070Z,13.22
2022-07-29T06:08:43.062Z,13.23
2022-07-29T06:12:07.092Z,13.22
2022-07-29T06:15:30.988Z,13.32
2022-07-29T06:18:55.999Z,13.37
2022-07-29T06:22:19.978Z,13.35
2022-07-29T06:25:46.006Z,13.34
2022-07-29T06:29:11.026Z,13.42
2022-07-29T06:32:35.007Z,13.37
2022-07-29T06:35:59.991Z,13.41
2022-07-29T06:39:25.136Z,13.40
2022-07-29T06:42:48.995Z,13.33
2022-07-29T06:46:14.089Z,13.27
2022-07-29T06:49:38.996Z,13.18
2022-07-29T06:53:03.074Z,13.11
2022-07-29T06:56:27.014Z,12.95
2022-07-29T06:59:51.044Z,12.87
2022-07-29T07:03:15.000Z,12.77
2022-07-29T07:06:39.099Z,12.54
2022-07-29T07:10:03.015Z,12.13
2022-07-29T07:13:27.108Z,11.85
2022-07-29T07:16:52.623Z,11.86
2022-07-29T07:20:21.076Z,11.86
2022-07-29T07:23:44.981Z,11.79
2022-07-29T07:27:11.047Z,11.76
2022-07-29T07:30:36.050Z,11.55
2022-07-29T07:34:01.034Z,11.66
2022-07-29T07:37:27.996Z,11.52
2022-07-29T07:40:55.039Z,12.04
2022-07-29T07:44:20.234Z,12.03
2022-07-29T07:47:46.087Z,12.03
2022-07-29T07:51:11.044Z,12.17
2022-07-29T07:54:35.038Z,12.01
2022-07-29T07:58:02.125Z,12.10
2022-07-29T08:01:28.150Z,12.09
2022-07-29T08:04:52.060Z,12.00
2022-07-29T08:08:17.015Z,12.00
2022-07-29T08:11:41.058Z,11.96
2022-07-29T08:15:10.164Z,11.84
2022-07-29T08:18:27.107Z,11.68
2022-07-29T08:21:52.287Z,11.70
2022-07-29T08:25:17.118Z,11.50
2022-07-29T08:28:41.054Z,11.54
2022-07-29T08:32:05.146Z,11.49
2022-07-29T08:35:33.321Z,11.47
2022-07-29T08:38:59.062Z,11.42
2022-07-29T08:42:26.076Z,11.37
2022-07-29T08:46:04.093Z,11.34
2022-07-29T08:49:28.114Z,11.45
2022-07-29T08:52:59.362Z,11.43
2022-07-29T08:56:26.089Z,11.12
2022-07-29T08:59:50.060Z,11.09
2022-07-29T09:03:15.157Z,11.10
2022-07-29T09:06:40.068Z,11.08
2022-07-29T09:10:05.083Z,11.00
2022-07-29T09:13:29.113Z,10.94
2022-07-29T09:17:01.518Z,10.53
2022-07-29T09:20:33.065Z,10.40
2022-07-29T09:24:13.131Z,10.33
2022-07-29T09:27:42.072Z,10.61
2022-07-29T09:31:16.199Z,10.44
2022-07-29T09:34:42.044Z,10.35
2022-07-29T09:38:07.256Z,10.33
2022-07-29T09:41:32.054Z,10.12
2022-07-29T09:45:04.158Z,9.97
2022-07-29T09:48:33.130Z,9.89
2022-07-29T09:51:57.110Z,9.87
2022-07-29T09:55:25.109Z,10.22
2022-07-29T09:58:49.117Z,10.46
2022-07-29T10:02:13.069Z,10.52
2022-07-29T10:05:39.130Z,10.40
2022-07-29T10:09:03.060Z,10.27
2022-07-29T10:12:28.098Z,10.28
2022-07-29T10:15:55.163Z,10.21
2022-07-29T10:19:19.148Z,10.14
2022-07-29T10:22:53.074Z,10.05
2022-07-29T10:26:21.092Z,10.10
2022-07-29T10:29:45.110Z,10.25
2022-07-29T10:33:27.122Z,9.96
2022-07-29T10:37:02.158Z,9.77
2022-07-29T10:41:08.604Z,9.65
2022-07-29T10:44:36.109Z,9.76
2022-07-29T10:48:02.109Z,9.84
2022-07-29T10:51:27.137Z,9.67
2022-07-29T10:55:07.118Z,9.35
2022-07-29T10:58:39.073Z,9.28
2022-07-29T11:02:27.948Z,9.32
2022-07-29T11:06:12.073Z,9.40
2022-07-29T11:09:39.152Z,9.50
2022-07-29T11:13:03.113Z,9.55
2022-07-29T11:16:27.118Z,9.56
2022-07-29T11:19:51.018Z,9.47
2022-07-29T11:23:10.143Z,9.15
2022-07-29T11:26:35.161Z,8.97
2022-07-29T11:30:06.163Z,8.86
2022-07-29T11:33:55.956Z,8.72
2022-07-29T11:37:28.281Z,8.78
2022-07-29T11:40:54.142Z,8.89
2022-07-29T11:44:20.135Z,8.92
2022-07-29T11:47:49.161Z,9.16
2022-07-29T11:51:15.154Z,9.36
2022-07-29T11:54:57.815Z,9.41
2022-07-29T11:58:22.112Z,9.51
2022-07-29T12:01:49.167Z,9.30
2022-07-29T12:05:14.479Z,9.48
2022-07-29T12:08:40.160Z,9.49
2022-07-29T12:12:13.146Z,9.53
2022-07-29T12:15:45.644Z,9.39
2022-07-29T12:19:18.140Z,9.46
2022-07-29T12:22:49.174Z,9.59
2022-07-29T12:26:21.777Z,9.62
2022-07-29T12:29:48.027Z,9.64
2022-07-29T12:33:15.122Z,9.71
2022-07-29T12:36:40.192Z,9.64
2022-07-29T12:40:07.163Z,9.68
2022-07-29T12:43:35.131Z,9.53
2022-07-29T12:46:59.175Z,9.59
2022-07-29T12:50:29.130Z,9.55
2022-07-29T12:53:53.182Z,9.56
2022-07-29T12:57:19.959Z,9.49
2022-07-29T13:00:44.201Z,9.45
2022-07-29T13:04:15.159Z,9.33
2022-07-29T13:07:55.916Z,9.28
2022-07-29T13:11:23.208Z,9.15
2022-07-29T13:14:49.179Z,9.13
2022-07-29T13:18:16.488Z,9.15
2022-07-29T13:21:43.139Z,9.05
2022-07-29T13:25:11.216Z,8.95
2022-07-29T13:28:36.120Z,8.72
2022-07-29T13:32:00.830Z,8.54
2022-07-29T13:35:26.132Z,8.36
2022-07-29T13:38:50.216Z,8.66
2022-07-29T13:42:14.165Z,8.73
2022-07-29T13:45:38.262Z,8.60
2022-07-29T13:49:02.221Z,8.67
2022-07-29T13:52:26.210Z,8.70
2022-07-29T13:55:50.151Z,8.93
2022-07-29T13:59:14.204Z,8.79
2022-07-29T14:02:40.178Z,8.85
2022-07-29T14:06:05.182Z,8.66
2022-07-29T14:09:30.181Z,8.63
2022-07-29T14:13:05.144Z,8.57
2022-07-29T14:16:29.236Z,8.63
2022-07-29T14:19:54.183Z,8.48
2022-07-29T14:23:18.228Z,8.46
2022-07-29T14:26:37.874Z,8.58
2022-07-29T14:29:55.195Z,8.56
2022-07-29T14:33:20.150Z,8.36
2022-07-29T14:36:44.184Z,8.37
2022-07-29T14:40:12.195Z,8.48
2022-07-29T14:43:37.265Z,8.53
2022-07-29T14:47:01.183Z,8.47
2022-07-29T14:50:31.608Z,8.62
2022-07-29T14:53:56.211Z,8.55
2022-07-29T14:57:22.172Z,8.53
2022-07-29T15:00:46.238Z,8.52
2022-07-29T15:04:10.231Z,8.45
2022-07-29T15:07:36.199Z,8.55
2022-07-29T15:11:00.200Z,8.43
2022-07-29T15:14:26.164Z,8.49
2022-07-29T15:17:51.186Z,8.47
2022-07-29T15:21:18.190Z,8.46
2022-07-29T15:24:42.338Z,8.38
2022-07-29T15:28:04.609Z,8.38
2022-07-29T15:31:23.216Z,8.29
2022-07-29T15:34:47.218Z,8.31
2022-07-29T15:38:11.214Z,8.17
2022-07-29T15:41:36.251Z,8.40
2022-07-29T15:45:00.215Z,8.34
2022-07-29T15:48:26.202Z,8.33
2022-07-29T15:51:50.225Z,8.12
2022-07-29T15:55:15.211Z,8.07
2022-07-29T15:58:39.191Z,7.90
2022-07-29T16:02:03.241Z,7.79
2022-07-29T16:05:27.209Z,7.56
2022-07-29T16:08:51.216Z,7.77
2022-07-29T16:12:17.241Z,7.72
2022-07-29T16:15:43.177Z,7.45
2022-07-29T16:19:07.458Z,7.37
2022-07-29T16:22:31.258Z,7.25
2022-07-29T16:26:00.183Z,7.22
2022-07-29T16:29:27.197Z,7.27
2022-07-29T16:32:53.188Z,7.57
2022-07-29T16:36:18.491Z,7.55
2022-07-29T16:39:44.196Z,7.57
2022-07-29T16:43:08.261Z,7.57
2022-07-29T16:46:33.313Z,7.46
2022-07-29T16:49:57.371Z,7.60
2022-07-29T16:53:21.237Z,7.56
2022-07-29T16:56:45.212Z,7.36
2022-07-29T17:00:10.185Z,7.19
2022-07-29T17:03:35.208Z,7.19
2022-07-29T17:06:59.566Z,7.14
2022-07-29T17:10:25.263Z,7.18
2022-07-29T17:13:52.185Z,7.19
2022-07-29T17:17:16.729Z,7.21
2022-07-29T17:20:54.197Z,7.42
2022-07-29T17:24:18.254Z,7.54
2022-07-29T17:27:43.246Z,7.55
2022-07-29T17:31:06.264Z,7.76
2022-07-29T17:34:31.283Z,7.68
2022-07-29T17:37:55.279Z,7.57
2022-07-29T17:41:20.266Z,7.78
2022-07-29T17:44:44.399Z,7.68
2022-07-29T17:48:08.201Z,7.49
2022-07-29T17:51:32.243Z,7.47
2022-07-29T17:54:57.205Z,7.46
2022-07-29T17:58:22.245Z,7.63
2022-07-29T18:01:48.292Z,7.56
2022-07-29T18:05:12.291Z,7.39
2022-07-29T18:08:37.243Z,7.46
2022-07-29T18:12:01.240Z,7.29
2022-07-29T18:15:26.194Z,7.27
2022-07-29T18:18:50.238Z,7.05
2022-07-29T18:22:15.256Z,6.98
2022-07-29T18:25:39.315Z,6.91
2022-07-29T18:29:03.199Z,6.89
2022-07-29T18:32:29.414Z,6.73
2022-07-29T18:36:10.699Z,6.83
2022-07-29T18:39:37.319Z,6.77
2022-07-29T18:43:01.246Z,6.69
2022-07-29T18:46:26.311Z,6.74
2022-07-29T18:49:51.225Z,6.81
2022-07-29T18:53:15.253Z,6.72
2022-07-29T18:56:39.248Z,6.71
2022-07-29T19:00:04.258Z,6.77
2022-07-29T19:03:28.283Z,6.55
2022-07-29T19:06:52.264Z,6.41
2022-07-29T19:10:17.271Z,6.38
2022-07-29T19:13:42.286Z,6.28
2022-07-29T19:17:06.275Z,6.22
2022-07-29T19:20:30.265Z,6.06
2022-07-29T19:24:01.844Z,6.06
2022-07-29T19:27:32.250Z,5.92
2022-07-29T19:30:57.297Z,5.89
2022-07-29T19:34:21.423Z,5.88
2022-07-29T19:37:45.236Z,5.89
2022-07-29T19:41:10.342Z,6.00
2022-07-29T19:44:34.227Z,6.04
2022-07-29T19:48:01.490Z,6.07
2022-07-29T19:51:26.276Z,6.37
2022-07-29T19:54:50.265Z,6.47
2022-07-29T19:58:14.319Z,6.56
2022-07-29T20:01:40.304Z,6.62
2022-07-29T20:05:04.308Z,6.71
2022-07-29T20:08:29.297Z,6.71
2022-07-29T20:11:53.260Z,6.78
2022-07-29T20:15:18.289Z,6.94
2022-07-29T20:18:42.280Z,7.00
2022-07-29T20:22:06.281Z,7.18
2022-07-29T20:25:31.283Z,7.21
2022-07-29T20:28:55.475Z,7.32
2022-07-29T20:32:20.229Z,7.42
2022-07-29T20:35:44.319Z,7.68
2022-07-29T20:39:08.249Z,7.75
2022-07-29T20:42:32.328Z,7.74
2022-07-29T20:45:56.300Z,8.07
2022-07-29T20:49:20.296Z,8.43
2022-07-29T20:52:48.322Z,8.23
2022-07-29T20:56:12.367Z,8.62
2022-07-29T20:59:36.343Z,8.38
2022-07-29T21:03:00.386Z,8.79
2022-07-29T21:06:24.272Z,8.42
2022-07-29T21:09:48.358Z,8.58
2022-07-29T21:13:13.280Z,8.92
2022-07-29T21:16:40.377Z,9.19
2022-07-29T21:20:04.276Z,9.42
2022-07-29T21:23:28.337Z,9.78
2022-07-29T21:27:18.240Z,10.14
2022-07-29T21:30:37.306Z,10.48
2022-07-29T21:34:02.340Z,10.42
2022-07-29T21:37:20.962Z,10.54
2022-07-29T21:40:39.308Z,10.51
2022-07-29T21:44:03.319Z,11.35
2022-07-29T21:47:28.411Z,12.16
2022-07-29T21:50:53.306Z,12.63
2022-07-29T21:54:18.366Z,13.39
2022-07-29T21:57:46.302Z,13.98
2022-07-29T22:01:11.408Z,14.70
2022-07-29T22:04:35.406Z,15.59
2022-07-29T22:07:59.355Z,15.50
2022-07-29T22:11:23.340Z,15.60
2022-07-29T22:14:48.359Z,16.53
2022-07-29T22:18:13.291Z,16.90
2022-07-29T22:21:45.307Z,17.12
2022-07-29T22:25:10.293Z,17.02
2022-07-29T22:28:34.365Z,17.66
2022-07-29T22:31:58.320Z,17.01
2022-07-29T22:35:22.377Z,17.63
2022-07-29T22:38:39.985Z,16.65
2022-07-29T22:41:57.336Z,17.48
2022-07-29T22:45:21.342Z,17.04
2022-07-29T22:48:46.414Z,17.62
2022-07-29T22:52:10.367Z,18.54
2022-07-29T22:55:35.323Z,18.19
2022-07-29T22:58:59.334Z,17.02
2022-07-29T23:02:24.356Z,18.20
2022-07-29T23:05:49.302Z,18.11
2022-07-29T23:09:13.356Z,18.43
2022-07-29T23:12:37.346Z,17.82
2022-07-29T23:16:02.386Z,18.19
2022-07-29T23:19:26.297Z,17.73
2022-07-29T23:22:52.358Z,18.11
2022-07-29T23:26:17.294Z,17.78
2022-07-29T23:29:42.403Z,17.44
2022-07-29T23:33:06.360Z,18.26
2022-07-29T23:36:31.402Z,17.90
2022-07-29T23:39:48.900Z,17.61
2022-07-29T23:43:08.537Z,17.64
2022-07-29T23:46:34.393Z,17.91
2022-07-29T23:49:58.410Z,18.61
2022-07-29T23:53:23.365Z,17.25
2022-07-29T23:56:48.354Z,17.45
